Time,TemperatureF,DewpointF,PressureIn,WindDirection,WindDirectionDegrees,WindSpeedMPH,WindSpeedGustMPH,Humidity,HourlyPrecipIn,Conditions,Clouds,dailyrainin,SoftwareType,DateUTC
2013-10-19 00:01:00,45.1,39.9,29.81,West,270,0.0,0.0,82,0.00,CLR,,0.00,WeatherDisplay:10.37,2013-10-19 04:01:00,
2013-10-19 00:02:00,45.1,39.9,29.81,West,270,0.0,0.0,82,0.00,CLR,,0.00,WeatherDisplay:10.37,2013-10-19 04:02:00,
2013-10-19 00:03:00,45.1,39.9,29.81,West,270,0.0,0.0,82,0.00,CLR,,0.00,WeatherDisplay:10.37,2013-10-19 04:03:00,
2013-10-19 00:05:00,45.1,39.9,29.81,SSW,202,0.0,0.0,82,0.00,CLR,,0.00,WeatherDisplay:10.37,2013-10-19 04:05:00,
2013-10-19 00:10:00,45.0,39.8,29.81,SSE,158,0.0,0.0,82,0.00,CLR,,0.00,WeatherDisplay:10.37,2013-10-19 04:10:00,
2013-10-19 00:15:00,44.8,39.6,29.80,SSE,158,0.0,0.0,82,0.00,CLR,,0.00,WeatherDisplay:10.37,2013-10-19 04:15:00,
2013-10-19 00:20:00,45.5,40.3,29.80,East,90,0.0,0.0,82,0.00,CLR,,0.00,WeatherDisplay:10.37,2013-10-19 04:20:00,
2013-10-19 00:25:00,45.0,39.8,29.80,East,90,0.0,0.0,82,0.00,CLR,,0.00,WeatherDisplay:10.37,2013-10-19 04:25:00,
2013-10-19 00:30:00,45.5,40.0,29.80,ESE,112,1.7,1.7,81,0.00,CLR,,0.00,WeatherDisplay:10.37,2013-10-19 04:30:00,
2013-10-19 00:35:00,45.1,39.6,29.80,SE,135,1.7,1.7,81,0.00,CLR,,0.00,WeatherDisplay:10.37,2013-10-19 04:35:00,
2013-10-19 00:40:00,45.1,39.6,29.80,ESE,112,2.3,2.3,81,0.00,CLR,,0.00,WeatherDisplay:10.37,2013-10-19 04:40:00,
2013-10-19 00:45:00,45.1,39.6,29.80,ESE,112,2.7,2.7,81,0.00,CLR,,0.00,WeatherDisplay:10.37,2013-10-19 04:45:00,
2013-10-19 00:50:00,45.3,39.8,29.79,ESE,112,1.7,1.7,81,0.00,CLR,,0.00,WeatherDisplay:10.37,2013-10-19 04:50:00,
2013-10-19 00:55:00,45.0,39.8,29.79,ESE,112,2.2,2.2,82,0.00,CLR,,0.00,WeatherDisplay:10.37,2013-10-19 04:55:00,
2013-10-19 01:00:00,45.0,39.8,29.79,SE,135,2.7,2.7,82,0.00,CLR,,0.00,WeatherDisplay:10.37,2013-10-19 05:00:00,
2013-10-19 01:05:00,44.8,39.6,29.79,ESE,112,1.1,1.1,82,0.00,CLR,,0.00,WeatherDisplay:10.37,2013-10-19 05:05:00,
2013-10-19 01:10:00,44.6,39.4,29.79,ESE,112,0.0,0.0,82,0.00,CLR,,0.00,WeatherDisplay:10.37,2013-10-19 05:10:00,
2013-10-19 01:15:00,44.6,39.4,29.78,ESE,112,0.0,0.0,82,0.00,CLR,,0.00,WeatherDisplay:10.37,2013-10-19 05:15:00,
2013-10-19 01:20:00,44.2,39.1,29.78,SW,225,0.0,0.0,82,0.00,CLR,,0.00,WeatherDisplay:10.37,2013-10-19 05:20:00,
2013-10-19 01:25:00,44.4,39.6,29.78,West,270,5.8,5.8,83,0.00,CLR,,0.00,WeatherDisplay:10.37,2013-10-19 05:25:00,
2013-10-19 01:30:00,44.2,39.4,29.78,East,90,0.0,0.0,83,0.00,CLR,,0.00,WeatherDisplay:10.37,2013-10-19 05:30:00,
2013-10-19 01:35:00,44.1,39.3,29.78,SE,135,0.0,0.0,83,0.00,CLR,,0.00,WeatherDisplay:10.37,2013-10-19 05:35:00,
2013-10-19 01:40:00,44.1,39.3,29.79,SE,135,1.1,1.1,83,0.00,CLR,,0.00,WeatherDisplay:10.37,2013-10-19 05:40:00,
2013-10-19 01:45:00,44.1,39.3,29.79,South,180,2.2,2.2,83,0.00,CLR,,0.00,WeatherDisplay:10.37,2013-10-19 05:45:00,
2013-10-19 01:50:00,44.1,39.3,29.79,SSW,202,1.7,1.7,83,0.00,CLR,,0.00,WeatherDisplay:10.37,2013-10-19 05:50:00,
2013-10-19 01:55:00,43.2,39.0,29.79,West,270,2.3,2.3,85,0.00,CLR,,0.00,WeatherDisplay:10.37,2013-10-19 05:55:00,
2013-10-19 02:00:00,43.2,39.0,29.78,WSW,248,2.3,0.0,85,0.00,CLR,,0.00,WeatherDisplay:10.37,2013-10-19 06:00:00,
2013-10-19 02:05:00,43.2,39.0,29.78,SW,225,0.0,0.0,85,0.00,CLR,,0.00,WeatherDisplay:10.37,2013-10-19 06:05:00,
2013-10-19 02:10:00,43.3,39.1,29.78,SW,225,0.0,0.0,85,0.00,CLR,,0.00,WeatherDisplay:10.37,2013-10-19 06:10:00,
2013-10-19 02:15:00,43.3,39.1,29.78,SW,225,1.1,0.0,85,0.00,CLR,,0.00,WeatherDisplay:10.37,2013-10-19 06:15:00,
2013-10-19 02:20:00,43.3,39.1,29.78,SE,135,0.0,0.0,85,0.00,CLR,,0.00,WeatherDisplay:10.37,2013-10-19 06:20:00,
2013-10-19 02:25:00,43.5,39.0,29.78,SSW,202,1.1,1.1,84,0.00,CLR,,0.00,WeatherDisplay:10.37,2013-10-19 06:25:00,
2013-10-19 02:30:00,42.8,38.6,29.78,South,180,0.0,0.0,85,0.00,CLR,,0.00,WeatherDisplay:10.37,2013-10-19 06:30:00,
2013-10-19 02:35:00,42.6,38.4,29.77,South,180,0.0,0.0,85,0.00,CLR,,0.00,WeatherDisplay:10.37,2013-10-19 06:35:00,
2013-10-19 02:40:00,42.6,38.4,29.77,SW,225,0.0,0.0,85,0.00,CLR,,0.00,WeatherDisplay:10.37,2013-10-19 06:40:00,
2013-10-19 02:45:00,42.4,38.5,29.77,ESE,112,0.0,0.0,86,0.00,CLR,,0.00,WeatherDisplay:10.37,2013-10-19 06:45:00,
2013-10-19 02:50:00,42.8,38.9,29.77,ESE,112,0.0,0.0,86,0.00,CLR,,0.00,WeatherDisplay:10.37,2013-10-19 06:50:00,
2013-10-19 02:55:00,42.8,38.9,29.77,SE,135,0.0,0.0,86,0.00,CLR,,0.00,WeatherDisplay:10.37,2013-10-19 06:55:00,
2013-10-19 03:00:00,43.2,39.0,29.78,SE,135,0.0,0.0,85,0.00,CLR,,0.00,WeatherDisplay:10.37,2013-10-19 07:00:00,
2013-10-19 03:05:00,43.3,38.8,29.78,East,90,0.0,0.0,84,0.00,CLR,,0.00,WeatherDisplay:10.37,2013-10-19 07:05:00,
2013-10-19 03:10:00,43.7,39.2,29.77,ESE,112,2.3,2.3,84,0.00,CLR,,0.00,WeatherDisplay:10.37,2013-10-19 07:10:00,
2013-10-19 03:15:00,43.3,38.8,29.77,ESE,112,1.1,0.0,84,0.00,CLR,,0.00,WeatherDisplay:10.37,2013-10-19 07:15:00,
2013-10-19 03:20:00,43.5,39.0,29.77,East,90,0.0,0.0,84,0.00,CLR,,0.00,WeatherDisplay:10.37,2013-10-19 07:20:00,
2013-10-19 03:25:00,43.0,38.5,29.77,East,90,0.0,0.0,84,0.00,CLR,,0.00,WeatherDisplay:10.37,2013-10-19 07:25:00,
2013-10-19 03:30:00,42.6,38.4,29.77,East,90,0.0,0.0,85,0.00,CLR,,0.00,WeatherDisplay:10.37,2013-10-19 07:30:00,
2013-10-19 03:35:00,42.8,38.6,29.76,ESE,112,1.7,0.0,85,0.00,CLR,,0.00,WeatherDisplay:10.37,2013-10-19 07:35:00,
2013-10-19 03:40:00,43.0,38.8,29.76,East,90,0.0,0.0,85,0.00,CLR,,0.00,WeatherDisplay:10.37,2013-10-19 07:40:00,
2013-10-19 03:45:00,42.4,38.2,29.76,SW,225,0.0,0.0,85,0.00,CLR,,0.00,WeatherDisplay:10.37,2013-10-19 07:45:00,
2013-10-19 03:50:00,42.1,38.2,29.76,WSW,248,0.0,0.0,86,0.00,CLR,,0.00,WeatherDisplay:10.37,2013-10-19 07:50:00,
2013-10-19 03:55:00,41.7,37.8,29.76,WSW,248,0.0,0.0,86,0.00,CLR,,0.00,WeatherDisplay:10.37,2013-10-19 07:55:00,
2013-10-19 04:00:00,41.7,38.1,29.76,WSW,248,0.0,0.0,87,0.00,CLR,,0.00,WeatherDisplay:10.37,2013-10-19 08:00:00,
2013-10-19 04:05:00,41.5,37.9,29.76,WSW,248,0.0,0.0,87,0.00,CLR,,0.00,WeatherDisplay:10.37,2013-10-19 08:05:00,
2013-10-19 04:10:00,41.4,37.8,29.76,WSW,248,0.0,0.0,87,0.00,CLR,,0.00,WeatherDisplay:10.37,2013-10-19 08:10:00,
2013-10-19 04:15:00,41.4,37.8,29.76,WSW,248,0.0,0.0,87,0.00,CLR,,0.00,WeatherDisplay:10.37,2013-10-19 08:15:00,
2013-10-19 04:20:00,41.4,37.8,29.76,WSW,248,0.0,0.0,87,0.00,CLR,,0.00,WeatherDisplay:10.37,2013-10-19 08:20:00,
2013-10-19 04:25:00,41.9,38.3,29.75,WSW,248,0.0,0.0,87,0.00,CLR,,0.00,WeatherDisplay:10.37,2013-10-19 08:25:00,
2013-10-19 04:30:00,41.9,38.3,29.75,WSW,248,0.0,0.0,87,0.00,CLR,,0.00,WeatherDisplay:10.37,2013-10-19 08:30:00,
2013-10-19 04:35:00,41.7,38.1,29.75,WSW,248,0.0,0.0,87,0.00,CLR,,0.00,WeatherDisplay:10.37,2013-10-19 08:35:00,
2013-10-19 04:40:00,42.1,38.5,29.75,WSW,248,0.0,0.0,87,0.00,CLR,,0.00,WeatherDisplay:10.37,2013-10-19 08:40:00,
2013-10-19 04:45:00,41.9,38.3,29.75,WSW,248,0.0,0.0,87,0.00,CLR,,0.00,WeatherDisplay:10.37,2013-10-19 08:45:00,
2013-10-19 04:50:00,41.7,38.1,29.75,WSW,248,0.0,0.0,87,0.00,CLR,,0.00,WeatherDisplay:10.37,2013-10-19 08:50:00,
2013-10-19 04:55:00,41.2,37.6,29.75,WSW,248,0.0,0.0,87,0.00,CLR,,0.00,WeatherDisplay:10.37,2013-10-19 08:55:00,
2013-10-19 05:00:00,41.5,38.2,29.75,WSW,248,0.0,0.0,88,0.00,CLR,,0.00,WeatherDisplay:10.37,2013-10-19 09:00:00,
2013-10-19 05:05:00,41.9,38.3,29.75,WSW,248,0.0,0.0,87,0.00,CLR,,0.00,WeatherDisplay:10.37,2013-10-19 09:05:00,
2013-10-19 05:10:00,41.5,37.9,29.75,WSW,248,0.0,0.0,87,0.00,CLR,,0.00,WeatherDisplay:10.37,2013-10-19 09:10:00,
2013-10-19 05:15:00,40.8,37.2,29.74,WSW,248,0.0,0.0,87,0.00,CLR,,0.00,WeatherDisplay:10.37,2013-10-19 09:15:00,
2013-10-19 05:20:00,40.6,37.3,29.74,WSW,248,0.0,0.0,88,0.00,CLR,,0.00,WeatherDisplay:10.37,2013-10-19 09:20:00,
2013-10-19 05:25:00,40.5,37.5,29.74,WSW,248,0.0,0.0,89,0.00,CLR,,0.00,WeatherDisplay:10.37,2013-10-19 09:25:00,
2013-10-19 05:30:00,40.5,37.5,29.74,WSW,248,0.0,0.0,89,0.00,CLR,,0.00,WeatherDisplay:10.37,2013-10-19 09:30:00,
2013-10-19 05:35:00,40.5,37.5,29.74,SW,225,0.0,0.0,89,0.00,CLR,,0.00,WeatherDisplay:10.37,2013-10-19 09:35:00,
2013-10-19 05:40:00,40.3,37.3,29.74,WSW,248,0.0,0.0,89,0.00,CLR,,0.00,WeatherDisplay:10.37,2013-10-19 09:40:00,
2013-10-19 05:45:00,40.3,37.3,29.74,West,270,0.0,0.0,89,0.00,CLR,,0.00,WeatherDisplay:10.37,2013-10-19 09:45:00,
2013-10-19 05:50:00,40.3,37.6,29.74,West,270,0.0,0.0,90,0.00,CLR,,0.00,WeatherDisplay:10.37,2013-10-19 09:50:00,
2013-10-19 05:55:00,40.3,37.6,29.74,SW,225,0.0,0.3,90,0.00,CLR,,0.00,WeatherDisplay:10.37,2013-10-19 09:55:00,
2013-10-19 06:00:00,40.3,37.6,29.74,SW,225,1.1,0.0,90,0.00,CLR,,0.00,WeatherDisplay:10.37,2013-10-19 10:00:00,
2013-10-19 06:05:00,40.1,37.4,29.74,WSW,248,0.0,0.0,90,0.00,CLR,,0.00,WeatherDisplay:10.37,2013-10-19 10:05:00,
2013-10-19 06:10:00,39.9,37.2,29.74,WSW,248,0.0,0.0,90,0.00,CLR,,0.00,WeatherDisplay:10.37,2013-10-19 10:10:00,
2013-10-19 06:15:00,39.9,37.2,29.74,West,270,0.0,0.0,90,0.00,CLR,,0.00,WeatherDisplay:10.37,2013-10-19 10:15:00,
2013-10-19 06:20:00,39.7,37.0,29.74,WSW,248,0.0,0.0,90,0.00,CLR,,0.00,WeatherDisplay:10.37,2013-10-19 10:20:00,
2013-10-19 06:25:00,39.7,37.0,29.73,WSW,248,0.0,0.0,90,0.00,CLR,,0.00,WeatherDisplay:10.37,2013-10-19 10:25:00,
2013-10-19 06:30:00,39.6,36.9,29.73,WSW,248,0.0,0.0,90,0.00,CLR,,0.00,WeatherDisplay:10.37,2013-10-19 10:30:00,
2013-10-19 06:35:00,39.6,36.9,29.73,South,180,0.0,0.0,90,0.00,CLR,,0.00,WeatherDisplay:10.37,2013-10-19 10:35:00,
2013-10-19 06:40:00,39.6,36.9,29.73,South,180,0.0,0.0,90,0.00,CLR,,0.00,WeatherDisplay:10.37,2013-10-19 10:40:00,
2013-10-19 06:45:00,39.4,36.7,29.73,South,180,0.0,0.0,90,0.00,CLR,,0.00,WeatherDisplay:10.37,2013-10-19 10:45:00,
2013-10-19 06:50:00,39.7,37.3,29.73,ESE,112,0.0,0.0,91,0.00,CLR,,0.00,WeatherDisplay:10.37,2013-10-19 10:50:00,
2013-10-19 06:55:00,40.3,37.9,29.73,ESE,112,0.0,0.0,91,0.00,CLR,,0.00,WeatherDisplay:10.37,2013-10-19 10:55:00,
2013-10-19 07:00:00,40.8,37.8,29.73,ESE,112,0.0,0.0,89,0.00,CLR,,0.00,WeatherDisplay:10.37,2013-10-19 11:00:00,
2013-10-19 07:05:00,40.8,37.5,29.73,ESE,112,1.7,1.7,88,0.00,CLR,,0.00,WeatherDisplay:10.37,2013-10-19 11:05:00,
2013-10-19 07:10:00,40.8,37.8,29.73,ESE,112,0.0,0.0,89,0.00,CLR,,0.00,WeatherDisplay:10.37,2013-10-19 11:10:00,
2013-10-19 07:15:00,40.8,37.8,29.72,ESE,112,0.0,0.0,89,0.00,CLR,,0.00,WeatherDisplay:10.37,2013-10-19 11:15:00,
2013-10-19 07:20:00,40.6,37.6,29.72,ESE,112,1.1,1.2,89,0.00,CLR,,0.00,WeatherDisplay:10.37,2013-10-19 11:20:00,
2013-10-19 07:25:00,40.8,37.8,29.72,ESE,112,0.0,0.0,89,0.00,CLR,,0.00,WeatherDisplay:10.37,2013-10-19 11:25:00,
2013-10-19 07:30:00,40.8,37.5,29.72,ESE,112,0.0,0.0,88,0.00,CLR,,0.00,WeatherDisplay:10.37,2013-10-19 11:30:00,
2013-10-19 07:35:00,40.8,37.5,29.71,ESE,112,2.2,0.0,88,0.00,CLR,,0.00,WeatherDisplay:10.37,2013-10-19 11:35:00,
2013-10-19 07:40:00,40.5,37.5,29.71,ESE,112,2.3,2.3,89,0.00,CLR,,0.00,WeatherDisplay:10.37,2013-10-19 11:40:00,
2013-10-19 07:45:00,40.5,37.5,29.71,ESE,112,2.3,2.3,89,0.00,CLR,,0.00,WeatherDisplay:10.37,2013-10-19 11:45:00,
2013-10-19 07:50:00,40.5,37.5,29.71,ESE,112,2.3,2.3,89,0.00,CLR,,0.00,WeatherDisplay:10.37,2013-10-19 11:50:00,
2013-10-19 07:55:00,40.5,37.5,29.71,ESE,112,0.0,0.0,89,0.00,CLR,,0.00,WeatherDisplay:10.37,2013-10-19 11:55:00,
2013-10-19 08:00:00,40.3,37.3,29.71,ESE,112,0.0,0.0,89,0.00,CLR,,0.00,WeatherDisplay:10.37,2013-10-19 12:00:00,
2013-10-19 08:05:00,40.3,37.3,29.71,ESE,112,0.0,0.0,89,0.00,CLR,,0.00,WeatherDisplay:10.37,2013-10-19 12:05:00,
2013-10-19 08:10:00,40.8,37.8,29.71,ESE,112,0.0,0.0,89,0.00,CLR,,0.00,WeatherDisplay:10.37,2013-10-19 12:10:00,
2013-10-19 08:15:00,41.9,38.6,29.71,ESE,112,0.0,0.0,88,0.00,CLR,,0.00,WeatherDisplay:10.37,2013-10-19 12:15:00,
2013-10-19 08:20:00,43.0,39.7,29.71,ESE,112,0.0,0.0,88,0.00,CLR,,0.00,WeatherDisplay:10.37,2013-10-19 12:20:00,
2013-10-19 08:25:00,44.1,40.2,29.71,SE,135,0.0,0.0,86,0.00,CLR,,0.00,WeatherDisplay:10.37,2013-10-19 12:25:00,
2013-10-19 08:30:00,44.8,40.0,29.71,East,90,2.2,2.2,83,0.00,CLR,,0.00,WeatherDisplay:10.37,2013-10-19 12:30:00,
2013-10-19 08:36:00,45.9,41.0,29.71,South,180,0.0,0.0,83,0.00,CLR,,0.00,WeatherDisplay:10.37,2013-10-19 12:36:00,
2013-10-19 08:41:00,46.9,41.7,29.71,SW,225,2.2,2.2,82,0.00,CLR,,0.00,WeatherDisplay:10.37,2013-10-19 12:41:00,
2013-10-19 08:46:00,47.5,42.0,29.71,WSW,248,0.0,0.0,81,0.00,CLR,,0.00,WeatherDisplay:10.37,2013-10-19 12:46:00,
2013-10-19 08:51:00,47.5,41.6,29.71,SW,225,0.0,0.0,80,0.00,CLR,,0.00,WeatherDisplay:10.37,2013-10-19 12:51:00,
2013-10-19 08:56:00,47.5,41.3,29.71,WSW,248,2.2,2.2,79,0.00,CLR,,0.00,WeatherDisplay:10.37,2013-10-19 12:56:00,
2013-10-19 09:01:00,47.7,41.8,29.71,West,270,1.1,1.1,80,0.00,CLR,,0.00,WeatherDisplay:10.37,2013-10-19 13:01:00,
2013-10-19 09:06:00,46.8,41.9,29.71,WSW,248,2.2,2.2,83,0.00,CLR,,0.00,WeatherDisplay:10.37,2013-10-19 13:06:00,
2013-10-19 09:11:00,46.9,41.7,29.71,SSE,158,2.3,2.3,82,0.00,CLR,,0.00,WeatherDisplay:10.37,2013-10-19 13:11:00,
2013-10-19 09:16:00,47.3,41.8,29.71,WSW,248,2.3,2.3,81,0.00,CLR,,0.00,WeatherDisplay:10.37,2013-10-19 13:16:00,
2013-10-19 09:21:00,48.2,42.3,29.71,SSE,158,2.3,2.3,80,0.00,CLR,,0.00,WeatherDisplay:10.37,2013-10-19 13:21:00,
2013-10-19 09:26:00,48.0,42.1,29.71,SSE,158,1.1,0.0,80,0.00,CLR,,0.00,WeatherDisplay:10.37,2013-10-19 13:26:00,
2013-10-19 09:31:00,48.4,42.2,29.71,ESE,112,2.3,2.5,79,0.00,CLR,,0.00,WeatherDisplay:10.37,2013-10-19 13:31:00,
2013-10-19 09:36:00,49.1,42.5,29.70,ESE,112,3.5,3.5,78,0.00,CLR,,0.00,WeatherDisplay:10.37,2013-10-19 13:36:00,
2013-10-19 09:41:00,49.3,42.7,29.70,WSW,248,2.3,2.3,78,0.00,CLR,,0.00,WeatherDisplay:10.37,2013-10-19 13:41:00,
2013-10-19 09:46:00,49.3,42.7,29.70,West,270,2.3,2.3,78,0.00,CLR,,0.00,WeatherDisplay:10.37,2013-10-19 13:46:00,
2013-10-19 09:51:00,48.7,42.8,29.70,WSW,248,0.0,0.0,80,0.00,CLR,,0.00,WeatherDisplay:10.37,2013-10-19 13:51:00,
2013-10-19 09:56:00,50.0,43.4,29.70,ESE,112,2.3,2.3,78,0.00,CLR,,0.00,WeatherDisplay:10.37,2013-10-19 13:56:00,
2013-10-19 10:01:00,50.4,44.1,29.69,SW,225,2.7,2.7,79,0.00,BKN,,0.00,WeatherDisplay:10.37,2013-10-19 14:01:00,
2013-10-19 10:06:00,50.4,43.8,29.69,SW,225,2.3,2.3,78,0.00,BKN,,0.00,WeatherDisplay:10.37,2013-10-19 14:06:00,
2013-10-19 10:11:00,50.5,43.9,29.69,SW,225,2.3,2.3,78,0.00,BKN,,0.00,WeatherDisplay:10.37,2013-10-19 14:11:00,
2013-10-19 10:16:00,50.5,43.6,29.69,SSE,158,1.1,1.1,77,0.00,BKN,,0.00,WeatherDisplay:10.37,2013-10-19 14:16:00,
2013-10-19 10:21:00,50.9,44.3,29.69,SSW,202,2.3,2.3,78,0.00,BKN,,0.00,WeatherDisplay:10.37,2013-10-19 14:21:00,
2013-10-19 10:26:00,51.1,44.1,29.68,West,270,2.3,2.3,77,0.00,BKN,,0.00,WeatherDisplay:10.37,2013-10-19 14:26:00,
2013-10-19 10:31:00,50.9,44.3,29.68,SW,225,4.6,4.6,78,0.00,BKN,,0.00,WeatherDisplay:10.37,2013-10-19 14:31:00,
2013-10-19 10:36:00,51.3,44.0,29.68,SE,135,2.3,2.3,76,0.00,BKN,,0.00,WeatherDisplay:10.37,2013-10-19 14:36:00,
2013-10-19 10:41:00,52.0,44.7,29.68,ESE,112,3.2,3.2,76,0.00,BKN,,0.00,WeatherDisplay:10.37,2013-10-19 14:41:00,
2013-10-19 10:46:00,52.0,44.3,29.68,South,180,4.6,4.6,75,0.00,BKN,,0.00,WeatherDisplay:10.37,2013-10-19 14:46:00,
2013-10-19 10:51:00,52.9,44.5,29.67,SSW,202,5.8,5.8,73,0.00,BKN,,0.00,WeatherDisplay:10.37,2013-10-19 14:51:00,
2013-10-19 10:56:00,53.2,44.8,29.67,SSW,202,2.7,2.7,73,0.00,BKN,,0.00,WeatherDisplay:10.37,2013-10-19 14:56:00,
2013-10-19 11:01:00,53.4,45.0,29.67,SW,225,2.7,2.7,73,0.00,OVC,,0.00,WeatherDisplay:10.37,2013-10-19 15:01:00,
2013-10-19 11:06:00,53.8,45.3,29.67,West,270,3.5,3.5,73,0.00,OVC,,0.00,WeatherDisplay:10.37,2013-10-19 15:06:00,
2013-10-19 11:11:00,53.4,44.6,29.67,SW,225,6.3,6.3,72,0.00,OVC,,0.00,WeatherDisplay:10.37,2013-10-19 15:11:00,
2013-10-19 11:16:00,52.7,44.3,29.67,SW,225,5.8,5.8,73,0.00,OVC,,0.00,WeatherDisplay:10.37,2013-10-19 15:16:00,
2013-10-19 11:21:00,53.1,44.7,29.67,SSW,202,5.8,5.8,73,0.00,OVC,,0.00,WeatherDisplay:10.37,2013-10-19 15:21:00,
2013-10-19 11:26:00,53.4,45.0,29.68,West,270,3.5,3.5,73,0.00,OVC,,0.00,WeatherDisplay:10.37,2013-10-19 15:26:00,
2013-10-19 11:31:00,54.1,45.6,29.68,SW,225,3.5,3.5,73,0.00,OVC,,0.00,WeatherDisplay:10.37,2013-10-19 15:31:00,
2013-10-19 11:36:00,54.3,45.8,29.67,South,180,3.5,3.5,73,0.00,OVC,,0.00,WeatherDisplay:10.37,2013-10-19 15:36:00,
2013-10-19 11:41:00,54.0,45.2,29.67,WSW,248,3.5,3.5,72,0.00,OVC,,0.00,WeatherDisplay:10.37,2013-10-19 15:41:00,
2013-10-19 11:46:00,53.8,45.3,29.67,SW,225,5.8,5.8,73,0.00,OVC,,0.00,WeatherDisplay:10.37,2013-10-19 15:46:00,
2013-10-19 11:51:00,54.0,45.2,29.66,SW,225,6.9,6.9,72,0.00,OVC,,0.00,WeatherDisplay:10.37,2013-10-19 15:51:00,
2013-10-19 11:56:00,54.1,45.3,29.66,SW,225,4.6,4.6,72,0.00,OVC,,0.00,WeatherDisplay:10.37,2013-10-19 15:56:00,
2013-10-19 12:01:00,54.1,45.6,29.67,SW,225,5.8,5.8,73,0.00,OVC,,0.00,WeatherDisplay:10.37,2013-10-19 16:01:00,
2013-10-19 12:06:00,54.7,45.8,29.67,SW,225,3.7,3.7,72,0.00,OVC,,0.00,WeatherDisplay:10.37,2013-10-19 16:06:00,
2013-10-19 12:11:00,54.3,45.5,29.65,SW,225,5.8,5.8,72,0.00,OVC,,0.00,WeatherDisplay:10.37,2013-10-19 16:11:00,
2013-10-19 12:16:00,53.4,44.6,29.65,SW,225,5.8,5.8,72,0.00,OVC,,0.00,WeatherDisplay:10.37,2013-10-19 16:16:00,
2013-10-19 12:21:00,53.2,44.8,29.65,SSW,202,5.8,5.8,73,0.00,OVC,,0.00,WeatherDisplay:10.37,2013-10-19 16:21:00,
2013-10-19 12:26:00,53.2,44.8,29.65,SW,225,4.6,4.6,73,0.00,OVC,,0.00,WeatherDisplay:10.37,2013-10-19 16:26:00,
2013-10-19 12:31:00,53.2,45.1,29.65,SW,225,4.6,4.6,74,0.00,OVC,,0.00,WeatherDisplay:10.37,2013-10-19 16:31:00,
2013-10-19 12:36:00,53.1,45.0,29.64,WSW,248,5.8,5.8,74,0.00,OVC,,0.00,WeatherDisplay:10.37,2013-10-19 16:36:00,
2013-10-19 12:41:00,53.2,45.1,29.64,SW,225,3.5,3.5,74,0.00,OVC,,0.00,WeatherDisplay:10.37,2013-10-19 16:41:00,
2013-10-19 12:46:00,53.6,45.5,29.64,WSW,248,3.7,3.7,74,0.00,OVC,,0.00,WeatherDisplay:10.37,2013-10-19 16:46:00,
2013-10-19 12:51:00,54.0,45.5,29.62,SW,225,3.5,3.5,73,0.00,OVC,,0.00,WeatherDisplay:10.37,2013-10-19 16:51:00,
2013-10-19 12:56:00,53.8,45.3,29.62,SW,225,5.8,5.8,73,0.00,OVC,,0.00,WeatherDisplay:10.37,2013-10-19 16:56:00,
2013-10-19 13:01:00,53.4,45.3,29.63,SW,225,4.6,4.6,74,0.00,OVC,,0.00,WeatherDisplay:10.37,2013-10-19 17:01:00,
2013-10-19 13:06:00,53.4,45.3,29.63,WSW,248,5.8,5.8,74,0.00,OVC,,0.00,WeatherDisplay:10.37,2013-10-19 17:06:00,
2013-10-19 13:11:00,53.4,45.3,29.63,SW,225,4.6,4.6,74,0.00,OVC,,0.00,WeatherDisplay:10.37,2013-10-19 17:11:00,
2013-10-19 13:16:00,53.6,45.5,29.63,West,270,3.5,3.5,74,0.00,OVC,,0.00,WeatherDisplay:10.37,2013-10-19 17:16:00,
2013-10-19 13:21:00,53.8,45.7,29.63,WSW,248,4.6,4.6,74,0.00,OVC,,0.00,WeatherDisplay:10.37,2013-10-19 17:21:00,
2013-10-19 13:26:00,54.3,46.2,29.62,SW,225,3.5,3.5,74,0.00,OVC,,0.00,WeatherDisplay:10.37,2013-10-19 17:26:00,
2013-10-19 13:31:00,54.5,46.0,29.62,SW,225,4.7,4.7,73,0.00,OVC,,0.00,WeatherDisplay:10.37,2013-10-19 17:31:00,
2013-10-19 13:36:00,54.3,45.8,29.62,SW,225,4.6,4.6,73,0.00,OVC,,0.00,WeatherDisplay:10.37,2013-10-19 17:36:00,
2013-10-19 13:41:00,54.1,45.6,29.62,SW,225,6.3,6.3,73,0.00,OVC,,0.00,WeatherDisplay:10.37,2013-10-19 17:41:00,
2013-10-19 13:46:00,54.0,45.5,29.62,West,270,5.8,5.8,73,0.00,OVC,,0.00,WeatherDisplay:10.37,2013-10-19 17:46:00,
2013-10-19 13:51:00,53.8,45.3,29.62,SW,225,5.8,5.8,73,0.00,OVC,,0.00,WeatherDisplay:10.37,2013-10-19 17:51:00,
2013-10-19 13:56:00,53.8,45.7,29.62,WSW,248,4.6,4.6,74,0.00,OVC,,0.00,WeatherDisplay:10.37,2013-10-19 17:56:00,
2013-10-19 14:01:00,53.8,45.7,29.61,SSW,202,5.8,5.8,74,0.00,OVC,,0.00,WeatherDisplay:10.37,2013-10-19 18:01:00,
2013-10-19 14:06:00,53.8,45.7,29.61,WSW,248,4.6,4.6,74,0.00,OVC,,0.00,WeatherDisplay:10.37,2013-10-19 18:06:00,
2013-10-19 14:11:00,54.5,46.4,29.61,West,270,4.2,4.2,74,0.00,OVC,,0.00,WeatherDisplay:10.37,2013-10-19 18:11:00,
2013-10-19 14:16:00,55.2,46.7,29.61,SW,225,3.5,3.5,73,0.00,OVC,,0.00,WeatherDisplay:10.37,2013-10-19 18:16:00,
2013-10-19 14:21:00,54.7,46.2,29.61,WSW,248,4.6,4.6,73,0.00,OVC,,0.00,WeatherDisplay:10.37,2013-10-19 18:21:00,
2013-10-19 14:26:00,54.9,47.1,29.61,WSW,248,5.8,5.8,75,0.00,OVC,,0.00,WeatherDisplay:10.37,2013-10-19 18:26:00,
2013-10-19 14:31:00,54.0,46.3,29.61,WSW,248,5.8,5.8,75,0.00,OVC,,0.00,WeatherDisplay:10.37,2013-10-19 18:31:00,
2013-10-19 14:36:00,53.4,45.7,29.60,WSW,248,4.6,4.6,75,0.00,OVC,,0.00,WeatherDisplay:10.37,2013-10-19 18:36:00,
2013-10-19 14:41:00,53.6,46.6,29.60,SW,225,2.3,2.3,77,0.00,OVC,,0.00,WeatherDisplay:10.37,2013-10-19 18:41:00,
2013-10-19 14:46:00,53.6,46.6,29.60,SW,225,5.3,5.3,77,0.00,OVC,,0.00,WeatherDisplay:10.37,2013-10-19 18:46:00,
2013-10-19 14:51:00,53.4,46.4,29.60,WSW,248,4.6,4.6,77,0.00,OVC,,0.00,WeatherDisplay:10.37,2013-10-19 18:51:00,
2013-10-19 14:56:00,53.4,46.0,29.60,SSW,202,5.3,5.3,76,0.00,OVC,,0.00,WeatherDisplay:10.37,2013-10-19 18:56:00,
2013-10-19 15:01:00,53.4,46.4,29.60,South,180,4.7,4.7,77,0.00,-RA,,0.00,WeatherDisplay:10.37,2013-10-19 19:01:00,
2013-10-19 15:06:00,53.1,46.4,29.60,WSW,248,4.7,4.7,78,0.00,-RA,,0.00,WeatherDisplay:10.37,2013-10-19 19:06:00,
2013-10-19 15:11:00,52.5,46.2,29.59,West,270,3.5,3.5,79,0.00,-RA,,0.00,WeatherDisplay:10.37,2013-10-19 19:11:00,
2013-10-19 15:16:00,52.5,46.5,29.59,SSW,202,4.6,4.6,80,0.00,-RA,,0.00,WeatherDisplay:10.37,2013-10-19 19:16:00,
2013-10-19 15:21:00,52.7,46.7,29.59,SSE,158,4.6,4.6,80,0.00,-RA,,0.00,WeatherDisplay:10.37,2013-10-19 19:21:00,
2013-10-19 15:26:00,52.5,46.5,29.59,WSW,248,2.3,2.5,80,0.00,-RA,,0.00,WeatherDisplay:10.37,2013-10-19 19:26:00,
2013-10-19 15:31:00,52.7,46.7,29.59,SSE,158,2.3,2.3,80,0.00,-RA,,0.00,WeatherDisplay:10.37,2013-10-19 19:31:00,
2013-10-19 15:36:00,52.3,46.3,29.59,West,270,9.2,9.2,80,0.00,-RA,,0.00,WeatherDisplay:10.37,2013-10-19 19:36:00,
2013-10-19 15:41:00,52.3,46.3,29.59,SSW,202,4.6,4.6,80,0.00,-RA,,0.00,WeatherDisplay:10.37,2013-10-19 19:41:00,
2013-10-19 15:46:00,52.3,46.3,29.59,West,270,5.8,5.8,80,0.00,-RA,,0.00,WeatherDisplay:10.37,2013-10-19 19:46:00,
2013-10-19 15:51:00,52.2,46.5,29.59,WSW,248,5.8,5.8,81,0.00,-RA,,0.00,WeatherDisplay:10.37,2013-10-19 19:51:00,
2013-10-19 15:56:00,52.2,46.5,29.59,SW,225,5.8,5.8,81,0.00,-RA,,0.00,WeatherDisplay:10.37,2013-10-19 19:56:00,
2013-10-19 16:01:00,52.3,46.6,29.59,SSW,202,5.8,5.8,81,0.00,OVC,,0.00,WeatherDisplay:10.37,2013-10-19 20:01:00,
2013-10-19 16:06:00,52.9,46.9,29.59,SSW,202,4.6,4.6,80,0.00,OVC,,0.00,WeatherDisplay:10.37,2013-10-19 20:06:00,
2013-10-19 16:11:00,53.1,47.4,29.59,SSW,202,6.9,6.9,81,0.00,OVC,,0.00,WeatherDisplay:10.37,2013-10-19 20:11:00,
2013-10-19 16:16:00,53.1,47.4,29.59,SSW,202,5.8,5.8,81,0.00,OVC,,0.00,WeatherDisplay:10.37,2013-10-19 20:16:00,
2013-10-19 16:21:00,52.7,47.0,29.59,WSW,248,4.6,4.7,81,0.00,OVC,,0.00,WeatherDisplay:10.37,2013-10-19 20:21:00,
2013-10-19 16:26:00,52.5,46.8,29.60,West,270,8.1,8.1,81,0.00,OVC,,0.00,WeatherDisplay:10.37,2013-10-19 20:26:00,
2013-10-19 16:31:00,52.2,46.5,29.60,SW,225,6.9,6.9,81,0.00,OVC,,0.00,WeatherDisplay:10.37,2013-10-19 20:31:00,
2013-10-19 16:36:00,51.8,46.8,29.60,WSW,248,5.8,5.8,83,0.00,OVC,,0.00,WeatherDisplay:10.37,2013-10-19 20:36:00,
2013-10-19 16:41:00,51.6,46.9,29.60,SW,225,5.8,5.8,84,0.00,OVC,,0.00,WeatherDisplay:10.37,2013-10-19 20:41:00,
2013-10-19 16:46:00,51.4,47.0,29.60,WSW,248,8.3,8.3,85,0.00,OVC,,0.00,WeatherDisplay:10.37,2013-10-19 20:46:00,
2013-10-19 16:51:00,51.4,46.7,29.59,SSW,202,10.4,10.4,84,0.00,OVC,,0.00,WeatherDisplay:10.37,2013-10-19 20:51:00,
2013-10-19 16:56:00,51.4,46.7,29.59,SW,225,9.2,9.2,84,0.00,OVC,,0.00,WeatherDisplay:10.37,2013-10-19 20:56:00,
2013-10-19 17:01:00,51.3,46.6,29.59,SSW,202,7.8,7.8,84,0.00,-RA,,0.00,WeatherDisplay:10.37,2013-10-19 21:01:00,
2013-10-19 17:06:00,51.3,46.9,29.59,SSW,202,6.9,6.9,85,0.00,-RA,,0.00,WeatherDisplay:10.37,2013-10-19 21:06:00,
2013-10-19 17:11:00,51.1,46.7,29.58,South,180,8.1,8.1,85,0.00,-RA,,0.00,WeatherDisplay:10.37,2013-10-19 21:11:00,
2013-10-19 17:16:00,51.1,46.7,29.58,WSW,248,10.4,10.4,85,0.00,-RA,,0.00,WeatherDisplay:10.37,2013-10-19 21:16:00,
2013-10-19 17:21:00,50.9,46.6,29.58,West,270,9.2,9.2,85,0.00,-RA,,0.00,WeatherDisplay:10.37,2013-10-19 21:21:00,
2013-10-19 17:26:00,50.9,46.6,29.59,SW,225,6.9,6.9,85,0.00,-RA,,0.00,WeatherDisplay:10.37,2013-10-19 21:26:00,
2013-10-19 17:31:00,50.7,46.4,29.59,SE,135,9.2,9.2,85,0.00,-RA,,0.00,WeatherDisplay:10.37,2013-10-19 21:31:00,
2013-10-19 17:36:00,50.5,46.2,29.60,SW,225,8.1,8.1,85,0.00,-RA,,0.00,WeatherDisplay:10.37,2013-10-19 21:36:00,
2013-10-19 17:41:00,50.4,46.4,29.60,SW,225,10.4,10.4,86,0.01,-RA,,0.01,WeatherDisplay:10.37,2013-10-19 21:41:00,
2013-10-19 17:46:00,50.4,46.4,29.60,SW,225,9.2,9.2,86,0.01,-RA,,0.01,WeatherDisplay:10.37,2013-10-19 21:46:00,
2013-10-19 17:51:00,50.4,46.4,29.60,SW,225,9.2,9.2,86,0.01,-RA,,0.01,WeatherDisplay:10.37,2013-10-19 21:51:00,
2013-10-19 17:56:00,50.2,46.2,29.60,WSW,248,8.1,8.1,86,0.01,-RA,,0.01,WeatherDisplay:10.37,2013-10-19 21:56:00,
2013-10-19 18:01:00,50.2,46.2,29.59,SSW,202,9.2,9.2,86,0.01,-RA,,0.01,WeatherDisplay:10.37,2013-10-19 22:01:00,
2013-10-19 18:06:00,50.2,46.2,29.59,SW,225,9.2,9.2,86,0.01,-RA,,0.01,WeatherDisplay:10.37,2013-10-19 22:06:00,
2013-10-19 18:11:00,50.2,46.2,29.60,WNW,292,11.5,11.5,86,0.01,-RA,,0.01,WeatherDisplay:10.37,2013-10-19 22:11:00,
2013-10-19 18:16:00,50.2,45.9,29.60,WSW,248,10.4,10.4,85,0.01,-RA,,0.01,WeatherDisplay:10.37,2013-10-19 22:16:00,
2013-10-19 18:21:00,50.2,45.9,29.60,SW,225,10.4,10.4,85,0.01,-RA,,0.01,WeatherDisplay:10.37,2013-10-19 22:21:00,
2013-10-19 18:26:00,50.2,46.2,29.60,WSW,248,11.5,11.5,86,0.01,-RA,,0.01,WeatherDisplay:10.37,2013-10-19 22:26:00,
2013-10-19 18:31:00,49.8,46.1,29.60,West,270,12.7,12.7,87,0.01,OVC,,0.01,WeatherDisplay:10.37,2013-10-19 22:31:00,
2013-10-19 18:36:00,49.6,46.2,29.61,SSW,202,13.0,13.0,88,0.01,OVC,,0.01,WeatherDisplay:10.37,2013-10-19 22:36:00,
2013-10-19 18:41:00,49.1,46.0,29.61,SW,225,10.4,10.4,89,0.01,RA,,0.02,WeatherDisplay:10.37,2013-10-19 22:41:00,
2013-10-19 18:46:00,48.9,46.1,29.61,SSW,202,20.7,20.7,90,0.01,RA,,0.02,WeatherDisplay:10.37,2013-10-19 22:46:00,
2013-10-19 18:51:00,48.0,45.2,29.63,West,270,23.2,23.2,90,0.01,OVC,,0.02,WeatherDisplay:10.37,2013-10-19 22:51:00,
2013-10-19 18:56:00,47.5,44.7,29.63,WSW,248,19.6,19.6,90,0.02,RA,,0.03,WeatherDisplay:10.37,2013-10-19 22:56:00,
2013-10-19 19:01:00,46.8,44.0,29.64,SW,225,20.7,20.7,90,0.02,-RA,,0.03,WeatherDisplay:10.37,2013-10-19 23:01:00,
2013-10-19 19:06:00,46.4,43.0,29.64,WSW,248,23.0,23.0,88,0.02,-RA,,0.03,WeatherDisplay:10.37,2013-10-19 23:06:00,
2013-10-19 19:11:00,45.9,42.2,29.64,WSW,248,19.6,19.6,87,0.02,-RA,,0.03,WeatherDisplay:10.37,2013-10-19 23:11:00,
2013-10-19 19:16:00,45.5,42.2,29.65,SW,225,17.1,17.1,88,0.02,-RA,,0.03,WeatherDisplay:10.37,2013-10-19 23:16:00,
2013-10-19 19:21:00,45.3,41.7,29.65,WSW,248,21.9,21.9,87,0.02,-RA,,0.03,WeatherDisplay:10.37,2013-10-19 23:21:00,
2013-10-19 19:26:00,45.3,41.7,29.66,SW,225,16.1,16.1,87,0.02,-RA,,0.03,WeatherDisplay:10.37,2013-10-19 23:26:00,
2013-10-19 19:31:00,45.1,41.2,29.66,SW,225,18.4,18.4,86,0.02,-RA,,0.03,WeatherDisplay:10.37,2013-10-19 23:31:00,
2013-10-19 19:36:00,45.1,41.2,29.67,SW,225,18.4,18.4,86,0.02,-RA,,0.03,WeatherDisplay:10.37,2013-10-19 23:36:00,
2013-10-19 19:41:00,45.1,40.9,29.67,SW,225,18.4,18.4,85,0.01,-RA,,0.03,WeatherDisplay:10.37,2013-10-19 23:41:00,
2013-10-19 19:46:00,45.1,40.6,29.67,West,270,16.1,16.1,84,0.01,-RA,,0.03,WeatherDisplay:10.37,2013-10-19 23:46:00,
2013-10-19 19:51:00,45.1,40.9,29.67,WSW,248,12.4,12.4,85,0.01,-RA,,0.03,WeatherDisplay:10.37,2013-10-19 23:51:00,
2013-10-19 19:56:00,45.1,40.9,29.67,SW,225,13.8,13.8,85,0.00,-RA,,0.03,WeatherDisplay:10.37,2013-10-19 23:56:00,
2013-10-19 20:01:00,45.0,41.1,29.68,WSW,248,12.7,12.7,86,0.00,OVC,,0.03,WeatherDisplay:10.37,2013-10-20 00:01:00,
2013-10-19 20:06:00,45.0,41.1,29.68,WSW,248,15.0,15.0,86,0.00,OVC,,0.03,WeatherDisplay:10.37,2013-10-20 00:06:00,
2013-10-19 20:11:00,45.0,40.8,29.68,WSW,248,18.4,18.4,85,0.00,OVC,,0.03,WeatherDisplay:10.37,2013-10-20 00:11:00,
2013-10-19 20:16:00,44.8,40.6,29.68,WSW,248,21.9,21.9,85,0.00,OVC,,0.03,WeatherDisplay:10.37,2013-10-20 00:16:00,
2013-10-19 20:21:00,44.8,40.6,29.68,SW,225,16.1,16.1,85,0.00,OVC,,0.03,WeatherDisplay:10.37,2013-10-20 00:21:00,
2013-10-19 20:26:00,44.8,40.6,29.69,SW,225,17.3,17.3,85,0.00,OVC,,0.03,WeatherDisplay:10.37,2013-10-20 00:26:00,
2013-10-19 20:31:00,44.8,40.3,29.69,SW,225,16.1,16.1,84,0.00,OVC,,0.03,WeatherDisplay:10.37,2013-10-20 00:31:00,
2013-10-19 20:36:00,44.4,39.9,29.70,WSW,248,13.8,13.8,84,0.00,OVC,,0.03,WeatherDisplay:10.37,2013-10-20 00:36:00,
2013-10-19 20:41:00,44.4,39.9,29.70,SW,225,16.6,16.6,84,0.00,OVC,,0.03,WeatherDisplay:10.37,2013-10-20 00:41:00,
2013-10-19 20:46:00,44.2,39.7,29.70,SW,225,15.0,15.0,84,0.00,OVC,,0.03,WeatherDisplay:10.37,2013-10-20 00:46:00,
2013-10-19 20:51:00,44.2,39.7,29.71,WSW,248,14.0,14.0,84,0.00,OVC,,0.03,WeatherDisplay:10.37,2013-10-20 00:51:00,
2013-10-19 20:56:00,44.4,39.2,29.71,SSW,202,19.6,19.6,82,0.00,OVC,,0.03,WeatherDisplay:10.37,2013-10-20 00:56:00,
2013-10-19 21:01:00,44.4,38.9,29.72,SW,225,19.6,19.6,81,0.00,OVC,,0.03,WeatherDisplay:10.37,2013-10-20 01:01:00,
2013-10-19 21:06:00,44.4,38.9,29.72,West,270,13.8,13.8,81,0.00,OVC,,0.03,WeatherDisplay:10.37,2013-10-20 01:06:00,
2013-10-19 21:11:00,44.4,38.9,29.72,SW,225,12.7,12.7,81,0.00,OVC,,0.03,WeatherDisplay:10.37,2013-10-20 01:11:00,
2013-10-19 21:16:00,44.2,38.7,29.72,WSW,248,11.5,11.5,81,0.00,OVC,,0.03,WeatherDisplay:10.37,2013-10-20 01:16:00,
2013-10-19 21:21:00,44.2,38.4,29.72,SW,225,17.3,17.3,80,0.00,OVC,,0.03,WeatherDisplay:10.37,2013-10-20 01:21:00,
2013-10-19 21:26:00,44.2,38.4,29.73,SW,225,13.8,13.8,80,0.00,OVC,,0.03,WeatherDisplay:10.37,2013-10-20 01:26:00,
2013-10-19 21:31:00,44.2,38.4,29.73,SW,225,16.1,16.1,80,0.00,OVC,,0.03,WeatherDisplay:10.37,2013-10-20 01:31:00,
2013-10-19 21:36:00,44.2,38.4,29.73,SW,225,13.8,13.8,80,0.00,OVC,,0.03,WeatherDisplay:10.37,2013-10-20 01:36:00,
2013-10-19 21:41:00,44.2,38.4,29.73,West,270,11.5,11.5,80,0.00,OVC,,0.03,WeatherDisplay:10.37,2013-10-20 01:41:00,
2013-10-19 21:46:00,43.9,38.1,29.73,SW,225,12.7,12.7,80,0.00,OVC,,0.03,WeatherDisplay:10.37,2013-10-20 01:46:00,
2013-10-19 21:51:00,43.5,38.1,29.74,SW,225,10.4,10.4,81,0.00,OVC,,0.03,WeatherDisplay:10.37,2013-10-20 01:51:00,
2013-10-19 21:56:00,43.3,37.9,29.74,SW,225,11.5,11.5,81,0.00,OVC,,0.03,WeatherDisplay:10.37,2013-10-20 01:56:00,
2013-10-19 22:01:00,43.3,37.9,29.73,WSW,248,10.4,10.4,81,0.00,FEW,,0.03,WeatherDisplay:10.37,2013-10-20 02:01:00,
2013-10-19 22:06:00,43.0,37.9,29.73,SW,225,8.1,8.1,82,0.00,FEW,,0.03,WeatherDisplay:10.37,2013-10-20 02:06:00,
2013-10-19 22:11:00,42.8,37.7,29.73,SW,225,9.9,9.9,82,0.00,FEW,,0.03,WeatherDisplay:10.37,2013-10-20 02:11:00,
2013-10-19 22:16:00,42.6,37.5,29.74,SW,225,6.8,6.8,82,0.00,FEW,,0.03,WeatherDisplay:10.37,2013-10-20 02:16:00,
2013-10-19 22:21:00,42.6,37.5,29.74,SW,225,6.9,6.9,82,0.00,FEW,,0.03,WeatherDisplay:10.37,2013-10-20 02:21:00,
2013-10-19 22:26:00,42.3,37.5,29.74,SW,225,6.8,6.8,83,0.00,FEW,,0.03,WeatherDisplay:10.37,2013-10-20 02:26:00,
2013-10-19 22:31:00,42.3,37.5,29.74,WSW,248,6.9,6.9,83,0.00,FEW,,0.03,WeatherDisplay:10.37,2013-10-20 02:31:00,
2013-10-19 22:36:00,42.3,37.5,29.75,SW,225,5.8,5.8,83,0.00,FEW,,0.03,WeatherDisplay:10.37,2013-10-20 02:36:00,
2013-10-19 22:41:00,42.1,37.6,29.75,SW,225,6.9,6.9,84,0.00,FEW,,0.03,WeatherDisplay:10.37,2013-10-20 02:41:00,
2013-10-19 22:46:00,42.1,37.6,29.75,WSW,248,8.1,8.1,84,0.00,FEW,,0.03,WeatherDisplay:10.37,2013-10-20 02:46:00,
2013-10-19 22:51:00,41.9,37.4,29.75,WSW,248,5.8,5.8,84,0.00,FEW,,0.03,WeatherDisplay:10.37,2013-10-20 02:51:00,
2013-10-19 22:56:00,41.9,37.7,29.75,South,180,6.3,6.3,85,0.00,FEW,,0.03,WeatherDisplay:10.37,2013-10-20 02:56:00,
2013-10-19 23:01:00,41.5,37.3,29.76,SSW,202,5.8,5.8,85,0.00,CLR,,0.03,WeatherDisplay:10.37,2013-10-20 03:01:00,
2013-10-19 23:06:00,41.5,37.3,29.76,SW,225,6.9,6.9,85,0.00,CLR,,0.03,WeatherDisplay:10.37,2013-10-20 03:06:00,
2013-10-19 23:11:00,41.5,37.3,29.76,SW,225,9.2,9.2,85,0.00,CLR,,0.03,WeatherDisplay:10.37,2013-10-20 03:11:00,
2013-10-19 23:16:00,41.5,37.3,29.76,WSW,248,6.9,6.9,85,0.00,CLR,,0.03,WeatherDisplay:10.37,2013-10-20 03:16:00,
2013-10-19 23:21:00,41.4,37.2,29.76,SW,225,7.3,7.3,85,0.00,CLR,,0.03,WeatherDisplay:10.37,2013-10-20 03:21:00,
2013-10-19 23:26:00,41.4,37.2,29.76,WSW,248,6.9,6.9,85,0.00,CLR,,0.03,WeatherDisplay:10.37,2013-10-20 03:26:00,
2013-10-19 23:31:00,41.4,37.5,29.76,SW,225,8.8,8.8,86,0.00,CLR,,0.03,WeatherDisplay:10.37,2013-10-20 03:31:00,
2013-10-19 23:36:00,41.4,37.5,29.76,WSW,248,6.9,6.9,86,0.00,CLR,,0.03,WeatherDisplay:10.37,2013-10-20 03:36:00,
2013-10-19 23:41:00,41.5,37.6,29.76,WSW,248,9.2,9.2,86,0.00,CLR,,0.03,WeatherDisplay:10.37,2013-10-20 03:41:00,
2013-10-19 23:46:00,41.4,37.5,29.76,WSW,248,9.2,9.2,86,0.00,CLR,,0.03,WeatherDisplay:10.37,2013-10-20 03:46:00,
2013-10-19 23:51:00,41.4,37.5,29.77,SW,225,6.9,6.9,86,0.00,CLR,,0.03,WeatherDisplay:10.37,2013-10-20 03:51:00,
2013-10-19 23:56:00,41.2,37.3,29.77,SSW,202,8.1,8.1,86,0.00,CLR,,0.03,WeatherDisplay:10.37,2013-10-20 03:56:00,